Time;durP1;ratioP1;P1;durP2;ratioP2;P2;SDS_P1;SDS_P2;PMS_P1;PMS_P2;Temp;Humidity;BMP_temperature;BMP_pressure;BME280_temperature;BME280_humidity;BME280_pressure;Samples;Min_cycle;Max_cycle;Signal;HPM_P1;HPM_P2
2021/03/21 00:00:59;;;;;;;16.17;9.13;;;;;;;8.63;62.13;101026.56;5002236;28;20416;-75
2021/03/21 00:03:26;;;;;;;10.98;9.77;;;;;;;8.58;62.95;101026.63;5006297;28;20060;-75
2021/03/21 00:05:53;;;;;;;12.73;10.45;;;;;;;8.53;63.67;101022.75;5015568;28;20062;-76
2021/03/21 00:08:24;;;;;;;10.82;9.32;;;;;;;8.49;63.34;101024.44;5009914;28;20459;-75
2021/03/21 00:10:52;;;;;;;11.23;9.57;;;;;;;8.43;64.22;101020.03;5010140;28;20475;-75
2021/03/21 00:13:20;;;;;;;11.30;9.35;;;;;;;8.44;64.10;101018.09;4995769;28;20541;-75
2021/03/21 00:15:48;;;;;;;10.15;9.13;;;;;;;8.46;64.00;101025.03;5010895;28;20057;-75
2021/03/21 00:18:16;;;;;;;12.25;10.40;;;;;;;8.46;63.83;101021.41;5013525;28;20419;-75
2021/03/21 00:20:43;;;;;;;12.27;9.77;;;;;;;8.40;64.44;101014.19;5010180;28;20057;-75
2021/03/21 00:23:10;;;;;;;10.35;8.77;;;;;;;8.38;64.48;101017.28;5013649;28;20503;-75
2021/03/21 00:25:38;;;;;;;11.30;9.82;;;;;;;8.33;64.33;101015.34;5010660;28;20072;-76
2021/03/21 00:28:07;;;;;;;11.05;9.45;;;;;;;8.34;64.27;101016.19;5002388;28;20062;-75
2021/03/21 00:30:37;;;;;;;12.02;9.77;;;;;;;8.35;63.75;101017.81;5010308;28;20070;-75
2021/03/21 00:33:04;;;;;;;12.00;10.18;;;;;;;8.34;63.82;101011.47;5000965;28;20052;-75
2021/03/21 00:35:32;;;;;;;11.80;10.10;;;;;;;8.37;64.40;101007.28;4996414;28;20518;-75
2021/03/21 00:38:02;;;;;;;11.57;10.00;;;;;;;8.36;63.93;101013.97;5008295;28;21311;-75
2021/03/21 00:40:29;;;;;;;;;;;;;;;8.34;64.22;101005.91;5012051;28;20056;-76
2021/03/21 00:42:59;;;;;;;14.27;10.77;;;;;;;8.26;65.00;101008.47;4997104;28;20243;-75
2021/03/21 00:45:28;;;;;;;14.68;11.75;;;;;;;8.26;65.36;101009.28;4994861;28;20062;-76
2021/03/21 00:47:55;;;;;;;14.87;11.53;;;;;;;8.30;65.41;101009.53;4996587;28;20062;-75
2021/03/21 00:50:26;;;;;;;14.48;11.52;;;;;;;8.30;65.67;101010.38;5014512;28;20050;-75
2021/03/21 00:52:53;;;;;;;13.95;11.25;;;;;;;8.31;65.77;101000.91;5017073;28;20050;-75
2021/03/21 00:55:20;;;;;;;15.25;11.90;;;;;;;8.31;66.06;100995.34;4994700;28;20058;-75
2021/03/21 00:57:47;;;;;;;13.63;11.82;;;;;;;8.30;65.45;101002.03;4995405;28;20424;-75
2021/03/21 01:00:21;;;;;;;13.77;11.05;;;;;;;8.33;65.35;100995.91;5011652;28;20514;-75
2021/03/21 01:02:48;;;;;;;15.40;12.85;;;;;;;8.31;65.96;100995.34;5013687;28;20058;-75
2021/03/21 01:05:19;;;;;;;16.65;14.05;;;;;;;8.31;66.08;100994.53;4998179;28;20065;-75
2021/03/21 01:07:48;;;;;;;17.17;12.88;;;;;;;8.28;65.29;100995.13;5002089;28;20053;-75
2021/03/21 01:10:15;;;;;;;15.15;12.30;;;;;;;8.28;65.83;100987.63;5013059;28;20053;-75
2021/03/21 01:12:42;;;;;;;17.10;12.93;;;;;;;8.27;66.25;100985.97;5000640;28;20069;-75
2021/03/21 01:15:10;;;;;;;16.80;12.88;;;;;;;8.28;66.23;100978.47;4994656;28;20506;-75
2021/03/21 01:17:40;;;;;;;17.65;12.77;;;;;;;8.30;65.80;100959.59;5001847;28;20076;-75
2021/03/21 01:20:07;;;;;;;;;;;;;;;8.29;65.84;100964.31;5014635;28;20072;-75
2021/03/21 01:22:34;;;;;;;19.80;12.95;;;;;;;8.26;65.41;100948.22;5013445;28;19928;-75
2021/03/21 01:25:01;;;;;;;17.23;13.30;;;;;;;8.26;66.27;100942.66;5007553;28;20484;-75
2021/03/21 01:27:28;;;;;;;22.58;15.30;;;;;;;8.28;66.33;100939.63;5007069;28;20061;-75
2021/03/21 01:29:54;;;;;;;19.45;14.43;;;;;;;8.30;67.22;100920.72;5013680;28;20054;-76
2021/03/21 01:32:21;;;;;;;19.17;14.45;;;;;;;8.27;67.02;100915.75;5014104;28;20089;-75
2021/03/21 01:34:49;;;;;;;18.67;14.77;;;;;;;8.28;67.87;100911.88;5012983;28;20061;-75
2021/03/21 01:37:16;;;;;;;21.13;15.63;;;;;;;8.29;67.22;100908.81;5010796;28;20399;-75
2021/03/21 01:39:43;;;;;;;19.65;15.07;;;;;;;8.31;67.62;100905.72;5000102;28;20066;-75
2021/03/21 01:42:14;;;;;;;20.83;15.25;;;;;;;8.29;66.80;100902.41;4998898;28;20050;-75
2021/03/21 01:44:41;;;;;;;19.63;14.80;;;;;;;8.30;67.60;100913.22;4998930;28;20503;-75
2021/03/21 01:47:19;;;;;;;19.55;14.93;;;;;;;8.28;67.47;100896.03;4994617;28;20069;-75
2021/03/21 01:49:48;;;;;;;21.35;16.20;;;;;;;8.24;67.80;100894.13;5002467;28;20053;-75
2021/03/21 01:52:30;;;;;;;20.95;16.33;;;;;;;8.28;67.28;100889.66;4998468;28;20054;-75
2021/03/21 01:54:59;;;;;;;21.80;15.30;;;;;;;8.26;67.80;100886.34;5012096;28;20062;-75
2021/03/21 01:57:26;;;;;;;21.52;16.20;;;;;;;8.26;67.70;100880.78;5012102;28;20058;-75
2021/03/21 01:59:55;;;;;;;20.55;15.68;;;;;;;8.24;67.84;100871.94;4999666;28;20395;-75
2021/03/21 02:02:22;;;;;;;19.05;14.43;;;;;;;8.25;67.66;100859.69;5013935;28;20621;-75
2021/03/21 02:04:49;;;;;;;23.65;18.10;;;;;;;8.20;67.60;100854.19;5004144;28;20404;-75
2021/03/21 02:07:41;;;;;;;20.95;16.27;;;;;;;8.13;68.06;100844.25;5001430;28;20127;-75
2021/03/21 02:10:14;;;;;;;22.00;15.88;;;;;;;8.08;67.58;100844.31;5002029;28;20129;-75
2021/03/21 02:12:59;;;;;;;21.55;15.90;;;;;;;8.01;68.26;100843.78;5013136;28;20062;-75
2021/03/21 02:15:34;;;;;;;19.33;15.10;;;;;;;7.97;68.35;100856.56;4995138;28;20058;-75
2021/03/21 02:18:07;;;;;;;19.25;14.77;;;;;;;7.90;68.08;100851.34;4994666;28;20058;-75
2021/03/21 02:21:07;;;;;;;21.88;16.27;;;;;;;7.86;69.07;100850.25;4993884;28;20050;-75
2021/03/21 02:23:52;;;;;;;;;;;;;;;7.83;68.79;100842.53;5006991;28;20054;-75
2021/03/21 02:26:49;;;;;;;21.23;15.50;;;;;;;7.83;68.50;100841.69;5006653;28;20318;-75
2021/03/21 02:29:40;;;;;;;22.95;15.30;;;;;;;7.89;68.73;100835.00;4993592;28;20055;-75
2021/03/21 02:32:14;;;;;;;22.98;17.48;;;;;;;7.90;68.96;100839.44;5006696;28;20065;-75
2021/03/21 02:35:02;;;;;;;24.30;17.17;;;;;;;7.93;69.26;100838.84;5008414;28;20053;-75
2021/03/21 02:37:38;;;;;;;22.85;16.55;;;;;;;7.98;69.19;100829.66;5001622;28;20054;-75
2021/03/21 02:40:19;;;;;;;22.75;16.55;;;;;;;8.03;69.28;100829.63;5001250;28;20059;-75
2021/03/21 02:42:55;;;;;;;24.92;18.05;;;;;;;8.05;68.60;100830.19;4993656;28;20483;-75
2021/03/21 02:45:26;;;;;;;26.38;18.75;;;;;;;8.00;69.66;100831.03;4993208;28;20058;-75
2021/03/21 02:48:00;;;;;;;25.23;18.42;;;;;;;8.03;69.47;100827.69;4993664;28;20419;-75
2021/03/21 02:50:31;;;;;;;28.42;19.95;;;;;;;8.05;69.59;100825.44;5008608;28;20484;-75
2021/03/21 02:53:02;;;;;;;27.65;19.40;;;;;;;8.05;69.92;100831.00;5014160;28;20058;-75
2021/03/21 02:55:33;;;;;;;30.30;19.85;;;;;;;8.04;70.25;100818.25;5015540;28;20495;-75
2021/03/21 02:58:04;;;;;;;30.65;20.63;;;;;;;8.03;70.37;100816.59;5015589;28;20058;-75
2021/03/21 03:00:36;;;;;;;29.48;19.63;;;;;;;8.01;70.42;100810.50;5000639;28;20409;-75
2021/03/21 03:03:08;;;;;;;33.00;22.40;;;;;;;8.06;69.74;100810.47;4997275;28;20058;-75
2021/03/21 03:05:38;;;;;;;31.73;20.85;;;;;;;8.07;69.89;100800.19;4998403;28;20062;-75
2021/03/21 03:08:12;;;;;;;32.67;20.90;;;;;;;8.02;69.82;100791.91;5015302;28;20065;-75
2021/03/21 03:10:43;;;;;;;33.83;21.88;;;;;;;8.02;69.95;100803.84;5014254;28;20510;-75
2021/03/21 03:13:16;;;;;;;33.28;21.92;;;;;;;8.02;70.22;100795.53;5008125;28;20065;-75
2021/03/21 03:15:48;;;;;;;33.80;22.02;;;;;;;8.03;70.22;100793.56;5013065;28;20441;-75
2021/03/21 03:18:29;;;;;;;38.45;22.88;;;;;;;8.01;70.94;100801.34;5015930;28;20062;-75
2021/03/21 03:21:04;;;;;;;35.63;22.98;;;;;;;8.03;70.97;100799.94;5015931;28;20053;-75
2021/03/21 03:23:38;;;;;;;36.22;23.42;;;;;;;8.09;70.19;100807.09;5015336;28;20054;-75
2021/03/21 03:26:10;;;;;;;35.20;23.05;;;;;;;8.12;69.99;100812.06;5007041;28;20112;-75
2021/03/21 03:28:44;;;;;;;37.35;23.65;;;;;;;8.12;69.79;100802.91;4996395;28;20058;-75
2021/03/21 03:31:17;;;;;;;37.40;23.33;;;;;;;8.16;69.74;100795.66;4997018;28;20050;-75
2021/03/21 03:33:44;;;;;;;34.35;23.33;;;;;;;8.14;70.00;100787.63;5003379;28;20050;-75
2021/03/21 03:36:14;;;;;;;35.45;22.67;;;;;;;8.14;69.42;100786.81;4996963;28;20484;-75
2021/03/21 03:38:42;;;;;;;35.10;21.88;;;;;;;8.09;70.02;100786.88;5003530;28;20602;-75
2021/03/21 03:41:23;;;;;;;35.88;21.77;;;;;;;8.07;69.59;100781.59;5007814;28;20510;-75
2021/03/21 03:44:00;;;;;;;33.95;20.42;;;;;;;8.04;70.34;100778.56;5015248;28;20054;-75
2021/03/21 03:46:34;;;;;;;36.47;21.98;;;;;;;8.05;70.77;100781.06;5008908;28;20065;-75
2021/03/21 03:49:10;;;;;;;36.28;21.80;;;;;;;8.06;70.25;100782.72;4997003;28;20062;-75
2021/03/21 03:51:53;;;;;;;36.20;21.98;;;;;;;8.04;70.19;100773.88;4996408;28;20055;-75
2021/03/21 03:54:27;;;;;;;36.38;22.95;;;;;;;8.05;70.08;100775.50;4996381;28;20050;-75
2021/03/21 03:56:58;;;;;;;35.45;21.35;;;;;;;8.07;70.45;100773.28;4996315;28;20464;-75
2021/03/21 03:59:39;;;;;;;36.55;22.35;;;;;;;8.08;69.85;100769.41;5013877;28;20053;-75
2021/03/21 04:02:11;;;;;;;35.22;21.95;;;;;;;8.05;69.43;100781.06;5014964;28;20054;-75
2021/03/21 04:04:48;;;;;;;35.70;22.33;;;;;;;8.05;70.03;100771.91;5007187;28;20130;-75
2021/03/21 04:07:25;;;;;;;33.67;21.77;;;;;;;8.02;69.92;100776.09;5008468;28;20050;-75
2021/03/21 04:09:56;;;;;;;36.75;22.88;;;;;;;8.00;70.06;100783.88;5013890;28;20435;-75
2021/03/21 04:12:30;;;;;;;42.95;24.98;;;;;;;8.01;70.41;100779.16;5014587;28;20435;-75
2021/03/21 04:15:06;;;;;;;39.40;23.67;;;;;;;8.03;70.29;100782.47;5015464;28;20057;-75
2021/03/21 04:17:40;;;;;;;40.75;24.75;;;;;;;8.04;70.17;100781.34;5014416;28;20070;-75
2021/03/21 04:20:12;;;;;;;39.17;24.25;;;;;;;8.02;70.14;100786.34;5010795;28;20440;-75
2021/03/21 04:22:43;;;;;;;38.33;24.17;;;;;;;8.05;70.30;100780.25;5010556;28;20069;-75
2021/03/21 04:25:16;;;;;;;40.28;25.65;;;;;;;8.03;70.43;100783.28;4998836;28;20046;-75
2021/03/21 04:27:50;;;;;;;40.25;24.45;;;;;;;8.07;70.26;100780.78;5014187;28;20058;-75
2021/03/21 04:30:21;;;;;;;42.58;26.33;;;;;;;8.04;70.72;100773.88;5013468;28;20061;-75
2021/03/21 04:32:52;;;;;;;44.47;26.15;;;;;;;8.05;71.17;100781.06;5015028;28;20046;-75
2021/03/21 04:35:24;;;;;;;43.58;26.13;;;;;;;8.02;70.93;100781.66;5001139;28;20062;-75
2021/03/21 04:37:56;;;;;;;40.22;25.23;;;;;;;8.01;71.09;100779.16;5002693;28;20054;-75
2021/03/21 04:40:23;;;;;;;41.17;24.35;;;;;;;7.99;70.84;100773.06;5000850;28;20294;-75
2021/03/21 04:42:58;;;;;;;45.13;25.50;;;;;;;7.98;70.95;100775.03;5014434;28;20463;-75
2021/03/21 04:45:30;;;;;;;42.58;24.27;;;;;;;7.98;71.52;100772.25;4994542;28;20412;-75
2021/03/21 04:48:03;;;;;;;41.17;24.65;;;;;;;7.95;71.72;100778.38;4995115;28;20054;-75
2021/03/21 04:50:32;;;;;;;38.90;22.92;;;;;;;7.96;71.17;100768.94;4995392;28;20058;-75
2021/03/21 04:53:06;;;;;;;38.70;24.35;;;;;;;7.94;71.32;100779.50;4994783;28;20058;-75
2021/03/21 04:55:40;;;;;;;39.20;23.88;;;;;;;7.92;71.27;100765.09;5010969;28;20506;-75
2021/03/21 04:58:14;;;;;;;33.75;21.25;;;;;;;7.96;71.29;100768.94;4994391;28;20069;-75
2021/03/21 05:00:46;;;;;;;37.50;22.27;;;;;;;7.96;70.43;100760.63;4994788;28;20054;-75
2021/03/21 05:03:21;;;;;;;32.35;21.27;;;;;;;7.97;70.69;100767.00;5011329;28;20054;-75
2021/03/21 05:05:56;;;;;;;31.25;19.33;;;;;;;7.91;71.04;100766.19;5012589;28;20450;-75
2021/03/21 05:08:28;;;;;;;32.50;21.27;;;;;;;7.94;71.44;100754.53;5001681;28;20385;-75
2021/03/21 05:10:58;;;;;;;34.88;22.42;;;;;;;7.91;71.16;100752.31;4995681;28;20058;-75
2021/03/21 05:13:31;;;;;;;35.05;21.45;;;;;;;7.89;71.30;100749.00;4994629;28;20042;-75
2021/03/21 05:16:04;;;;;;;38.22;22.70;;;;;;;7.88;72.07;100761.22;4994021;28;20054;-75
2021/03/21 05:18:38;;;;;;;34.63;21.83;;;;;;;7.92;71.58;100754.00;4996495;28;20058;-75
2021/03/21 05:21:12;;;;;;;35.58;22.15;;;;;;;7.91;72.10;100755.09;5013236;28;20061;-75
2021/03/21 05:23:46;;;;;;;35.97;23.05;;;;;;;7.90;71.86;100757.06;5011438;28;20058;-75
2021/03/21 05:26:20;;;;;;;35.85;22.23;;;;;;;7.89;72.08;100738.72;5013078;28;20061;-75
2021/03/21 05:28:57;;;;;;;35.70;21.77;;;;;;;7.93;72.42;100755.63;5014346;28;20065;-75
2021/03/21 05:31:25;;;;;;;27.35;18.17;;;;;;;7.95;71.46;100747.84;4993770;28;20065;-75
2021/03/21 05:33:56;;;;;;;33.25;21.10;;;;;;;7.95;71.95;100753.41;4994341;28;20046;-75
2021/03/21 05:36:43;;;;;;;30.42;20.02;;;;;;;7.95;72.44;100747.84;4998289;28;20117;-75
2021/03/21 05:39:19;;;;;;;30.65;19.30;;;;;;;7.93;72.23;100747.31;4999970;28;20480;-75
2021/03/21 05:42:14;;;;;;;32.53;20.55;;;;;;;7.92;72.09;100746.50;5008900;28;20050;-75
2021/03/21 05:45:16;;;;;;;29.15;18.92;;;;;;;7.96;73.11;100743.13;4999358;28;20069;-75
2021/03/21 05:48:03;;;;;;;25.10;17.35;;;;;;;7.95;73.10;100738.72;5006395;28;20068;-75
2021/03/21 05:51:14;;;;;;;27.00;18.23;;;;;;;7.92;72.47;100721.53;4991708;28;20070;-75
2021/03/21 05:54:23;;;;;;;27.08;17.98;;;;;;;7.93;72.61;100725.13;4994003;28;20085;-75
2021/03/21 05:57:12;;;;;;;24.55;17.13;;;;;;;7.95;73.07;100733.16;4951156;28;20057;-75
2021/03/21 05:59:54;;;;;;;23.45;15.43;;;;;;;8.01;72.15;100752.25;5005310;28;20062;-75
2021/03/21 06:02:46;;;;;;;21.45;15.73;;;;;;;7.99;71.81;100742.56;5008460;28;20053;-75
2021/03/21 06:05:49;;;;;;;23.05;16.33;;;;;;;7.96;72.13;100751.44;5012563;28;20058;-75
2021/03/21 06:08:30;;;;;;;19.35;14.80;;;;;;;7.98;72.66;100736.19;4972619;28;20054;-75
2021/03/21 06:11:23;;;;;;;19.63;14.93;;;;;;;8.02;72.06;100737.28;5003185;28;20062;-75
2021/03/21 06:14:01;;;;;;;20.95;15.10;;;;;;;8.01;71.96;100743.09;5012379;28;20510;-75
2021/03/21 06:16:47;;;;;;;19.55;14.95;;;;;;;8.06;71.82;100748.59;4998101;28;20403;-75
2021/03/21 06:19:34;;;;;;;17.15;12.57;;;;;;;8.10;71.56;100747.72;5002645;28;20061;-75
2021/03/21 06:22:36;;;;;;;15.07;12.13;;;;;;;8.10;71.85;100758.81;5012338;28;20057;-75
2021/03/21 06:25:31;;;;;;;13.07;10.55;;;;;;;8.14;71.24;100770.16;5012395;28;20061;-76
2021/03/21 06:28:21;;;;;;;13.32;10.63;;;;;;;8.20;70.82;100766.22;4996446;28;20058;-76
2021/03/21 06:31:02;;;;;;;;;;;;;;;8.26;70.54;100762.28;4998056;28;20058;-77
2021/03/21 06:33:44;;;;;;;12.00;9.40;;;;;;;8.30;70.61;100759.75;5011755;28;19921;-75
2021/03/21 06:36:20;;;;;;;11.88;9.48;;;;;;;8.38;70.61;100761.91;5010552;28;20050;-75
2021/03/21 06:39:10;;;;;;;10.90;9.20;;;;;;;8.47;70.76;100756.56;5006539;28;20069;-75
2021/03/21 06:41:57;;;;;;;11.98;8.27;;;;;;;8.57;70.00;100748.13;5011893;28;20403;-74
2021/03/21 06:44:44;;;;;;;9.40;7.65;;;;;;;8.72;69.19;100753.50;5005296;28;20054;-75
2021/03/21 06:47:31;;;;;;;9.63;6.80;;;;;;;8.91;68.15;100744.41;5002495;28;20427;-75
2021/03/21 06:50:21;;;;;;;9.18;7.30;;;;;;;8.94;68.36;100753.00;5004187;28;20526;-75
2021/03/21 06:52:58;;;;;;;10.10;6.35;;;;;;;9.01;67.19;100746.22;5004181;28;20049;-75
2021/03/21 06:55:33;;;;;;;9.48;6.90;;;;;;;9.10;67.61;100755.56;5008911;28;20496;-75
2021/03/21 06:58:42;;;;;;;8.93;6.63;;;;;;;9.13;67.18;100755.81;5007423;28;20513;-75
2021/03/21 07:01:28;;;;;;;7.97;6.68;;;;;;;9.24;66.93;100745.38;5002438;28;20436;-75
2021/03/21 07:04:32;;;;;;;9.63;7.13;;;;;;;9.19;67.01;100736.28;5002878;28;20154;-75
2021/03/21 07:07:58;;;;;;;9.27;6.53;;;;;;;9.22;67.20;100742.06;5006050;28;20054;-75
2021/03/21 07:10:57;;;;;;;8.65;6.40;;;;;;;9.25;67.24;100755.34;4914862;29;20513;-75
2021/03/21 07:13:57;;;;;;;11.10;6.95;;;;;;;9.21;66.46;100753.47;4949593;29;20094;-75
2021/03/21 07:16:37;;;;;;;;;;;;;;;9.23;66.97;100757.59;4974476;28;20677;-75
2021/03/21 07:19:54;;;;;;;9.73;7.03;;;;;;;9.19;67.77;100764.06;5001237;28;19932;-75
2021/03/21 07:22:57;;;;;;;7.60;5.90;;;;;;;9.16;68.12;100773.84;5002285;28;20385;-75
2021/03/21 07:25:54;;;;;;;10.30;5.32;;;;;;;9.28;67.93;100774.25;5002786;28;20066;-75
2021/03/21 07:28:54;;;;;;;6.97;4.82;;;;;;;9.35;67.44;100777.47;5009277;28;20080;-75
2021/03/21 07:31:42;;;;;;;6.90;5.00;;;;;;;9.39;66.93;100761.03;5003603;28;20054;-75
2021/03/21 07:34:47;;;;;;;7.97;4.75;;;;;;;9.48;66.68;100775.06;5008021;28;20066;-75
2021/03/21 07:37:20;;;;;;;6.47;4.38;;;;;;;9.67;65.76;100787.03;4979967;28;20066;-75
2021/03/21 07:40:02;;;;;;;5.47;4.25;;;;;;;9.73;65.43;100774.69;4998044;28;20487;-75
2021/03/21 07:42:45;;;;;;;6.95;4.30;;;;;;;9.76;65.27;100776.03;5016330;28;20057;-75
2021/03/21 07:45:37;;;;;;;8.05;5.07;;;;;;;9.79;65.43;100767.09;5010378;28;20058;-75
2021/03/21 07:48:29;;;;;;;6.93;4.25;;;;;;;9.81;64.64;100792.66;5010451;28;20430;-75
2021/03/21 07:51:08;;;;;;;6.07;4.00;;;;;;;9.74;65.05;100781.06;5007397;28;20054;-75
2021/03/21 07:53:39;;;;;;;6.40;4.10;;;;;;;9.64;65.51;100778.44;5005296;28;20427;-76
2021/03/21 07:56:14;;;;;;;5.55;3.90;;;;;;;9.55;66.03;100790.28;5003229;28;20399;-75
2021/03/21 07:58:45;;;;;;;6.95;3.88;;;;;;;9.59;65.30;100781.31;5005745;28;20054;-76
2021/03/21 08:01:13;;;;;;;5.45;4.60;;;;;;;9.60;65.67;100781.03;5001873;28;20050;-77
2021/03/21 08:03:54;;;;;;;5.55;4.30;;;;;;;9.65;65.45;100788.47;5009789;28;20046;-78
2021/03/21 08:06:28;;;;;;;6.70;4.35;;;;;;;9.64;65.77;100789.56;5010196;28;20056;-77
2021/03/21 08:09:02;;;;;;;6.50;4.07;;;;;;;9.68;65.79;100788.69;5014994;28;20364;-77
2021/03/21 08:11:30;;;;;;;5.32;3.80;;;;;;;9.77;64.91;100790.78;5008464;28;20054;-76
2021/03/21 08:14:11;;;;;;;5.63;4.57;;;;;;;9.83;64.03;100800.72;5011650;28;20054;-76
2021/03/21 08:16:44;;;;;;;5.63;4.00;;;;;;;9.89;64.54;100792.00;5014365;28;20058;-75
2021/03/21 08:19:20;;;;;;;7.28;5.43;;;;;;;10.02;63.39;100795.16;4996163;28;20054;-75
2021/03/21 08:21:48;;;;;;;7.22;5.53;;;;;;;10.11;63.90;100796.91;4994926;28;20061;-75
2021/03/21 08:24:20;;;;;;;8.23;5.05;;;;;;;10.20;62.31;100810.97;5004046;28;20085;-75
2021/03/21 08:26:47;;;;;;;6.82;5.20;;;;;;;10.27;61.89;100807.81;4997557;28;20419;-75
2021/03/21 08:29:19;;;;;;;6.13;4.53;;;;;;;10.38;61.56;100797.34;5013623;28;20050;-75
2021/03/21 08:32:01;;;;;;;5.57;4.38;;;;;;;10.45;61.56;100804.16;5014080;28;20058;-75
2021/03/21 08:34:44;;;;;;;5.60;3.60;;;;;;;10.40;62.16;100797.88;5008297;28;20427;-76
2021/03/21 08:37:28;;;;;;;6.43;4.13;;;;;;;10.31;62.48;100789.38;5009251;28;20064;-76
2021/03/21 08:39:59;;;;;;;6.70;4.03;;;;;;;10.22;62.16;100785.63;5004243;28;20411;-77
2021/03/21 08:42:45;;;;;;;6.22;3.80;;;;;;;10.06;62.19;100798.97;5014276;28;20053;-75
2021/03/21 08:45:36;;;;;;;10.70;7.50;;;;;;;9.96;62.75;100799.94;5013551;28;20065;-76
2021/03/21 08:48:14;;;;;;;6.10;3.25;;;;;;;9.85;61.65;100810.41;5006486;28;20423;-75
2021/03/21 08:50:45;;;;;;;4.63;3.45;;;;;;;9.78;61.86;100803.56;5011319;28;20058;-75
2021/03/21 08:53:30;;;;;;;5.43;3.92;;;;;;;9.82;62.56;100812.97;5015744;28;20057;-78
2021/03/21 08:56:17;;;;;;;3.97;2.78;;;;;;;9.96;61.61;100806.34;4998129;28;20062;-78
2021/03/21 08:58:44;;;;;;;6.05;2.88;;;;;;;10.04;60.66;100815.97;4998817;28;20058;-75
2021/03/21 09:01:14;;;;;;;7.88;3.85;;;;;;;10.04;59.60;100809.59;4997453;28;20058;-76
2021/03/21 09:03:42;;;;;;;10.20;4.97;;;;;;;10.07;58.52;100807.00;4999239;28;20050;-78
2021/03/21 09:06:25;;;;;;;14.07;7.68;;;;;;;10.09;58.48;100810.31;5013697;28;20057;-76
2021/03/21 09:08:52;;;;;;;10.00;3.80;;;;;;;10.09;58.13;100810.31;5003428;28;20058;-75
2021/03/21 09:11:34;;;;;;;6.22;2.83;;;;;;;9.99;56.87;100790.16;5003132;28;20050;-75
2021/03/21 09:14:03;;;;;;;7.13;2.53;;;;;;;9.92;56.80;100796.13;4998982;28;20416;-75
2021/03/21 09:16:30;;;;;;;8.63;2.75;;;;;;;9.89;57.68;100796.72;5010606;28;20058;-75
2021/03/21 09:19:16;;;;;;;8.43;3.90;;;;;;;9.89;57.29;100802.28;5009054;28;20051;-75
2021/03/21 09:21:47;;;;;;;6.40;2.58;;;;;;;9.94;57.32;100800.25;5007866;28;22142;-75
2021/03/21 09:24:22;;;;;;;6.25;2.72;;;;;;;10.13;57.46;100797.44;5009350;28;20046;-75
2021/03/21 09:26:51;;;;;;;7.40;2.40;;;;;;;10.36;57.72;100798.47;5014262;28;20164;-75
2021/03/21 09:29:29;;;;;;;6.75;2.55;;;;;;;10.50;57.00;100784.59;5011204;28;20060;-75
2021/03/21 09:32:00;;;;;;;8.93;2.50;;;;;;;10.57;57.10;100793.38;5008730;28;20069;-75
2021/03/21 09:34:32;;;;;;;9.70;3.40;;;;;;;10.60;55.71;100796.66;4993663;28;20058;-76
2021/03/21 09:37:05;;;;;;;8.57;2.63;;;;;;;10.54;54.28;100799.56;4993988;28;20066;-76
2021/03/21 09:39:35;;;;;;;9.85;2.63;;;;;;;10.43;55.22;100798.06;4997286;28;20057;-76
2021/03/21 09:42:09;;;;;;;12.00;3.13;;;;;;;10.49;55.92;100801.59;5012922;28;20054;-76
2021/03/21 09:44:39;;;;;;;6.95;2.33;;;;;;;10.56;55.60;100808.44;5005325;28;20058;-76
2021/03/21 09:47:31;;;;;;;9.02;2.78;;;;;;;10.74;55.52;100797.53;5012562;28;20053;-76
2021/03/21 09:50:20;;;;;;;12.88;2.15;;;;;;;10.94;54.57;100787.94;5013651;28;20053;-75
2021/03/21 09:52:57;;;;;;;10.43;2.23;;;;;;;10.96;54.80;100789.28;5009471;28;20486;-75
2021/03/21 09:55:38;;;;;;;10.05;2.33;;;;;;;11.04;53.79;100784.94;5005997;28;20069;-75
2021/03/21 09:58:16;;;;;;;10.20;2.20;;;;;;;10.96;53.69;100799.59;5012870;28;20061;-75
2021/03/21 10:00:49;;;;;;;11.38;2.53;;;;;;;10.87;54.48;100790.31;5010882;28;20053;-75
2021/03/21 10:03:25;;;;;;;8.90;3.17;;;;;;;10.73;54.31;100795.84;5000590;28;20358;-76
2021/03/21 10:05:57;;;;;;;10.95;2.53;;;;;;;10.74;54.85;100803.91;5015943;28;20057;-77
2021/03/21 10:08:43;;;;;;;11.77;2.83;;;;;;;10.88;54.94;100805.91;5003035;28;20062;-76
2021/03/21 10:11:14;;;;;;;11.90;2.85;;;;;;;11.01;52.94;100812.63;5019946;28;20053;-77
2021/03/21 10:13:44;;;;;;;10.93;2.45;;;;;;;11.12;52.28;100808.50;5014063;28;20061;-77
2021/03/21 10:16:19;;;;;;;12.20;2.80;;;;;;;11.13;50.63;100815.72;5014470;28;20054;-77
2021/03/21 10:18:48;;;;;;;14.52;3.80;;;;;;;11.07;50.29;100820.56;5017955;28;20054;-75
2021/03/21 10:21:33;;;;;;;15.82;3.15;;;;;;;10.90;50.24;100821.19;5015132;28;20050;-75
2021/03/21 10:24:29;;;;;;;10.50;2.80;;;;;;;10.81;51.70;100824.97;5012882;28;20058;-75
2021/03/21 10:27:40;;;;;;;12.70;2.97;;;;;;;10.84;52.32;100819.63;5003925;28;20460;-75
2021/03/21 10:30:23;;;;;;;13.18;3.17;;;;;;;10.78;51.58;100820.84;5015817;28;20060;-75
2021/03/21 10:33:34;;;;;;;12.80;3.25;;;;;;;10.73;51.45;100834.88;5016007;28;20054;-75
2021/03/21 10:36:01;;;;;;;14.65;4.10;;;;;;;10.82;52.88;100838.63;5016784;28;20057;-76
2021/03/21 10:38:46;;;;;;;14.18;3.50;;;;;;;10.92;51.17;100844.00;5017535;28;20053;-76
2021/03/21 10:41:46;;;;;;;15.70;3.08;;;;;;;10.99;51.13;100842.78;5016474;28;20086;-76
2021/03/21 10:44:17;;;;;;;14.43;3.67;;;;;;;11.20;50.55;100837.63;5005826;28;20065;-76
2021/03/21 10:46:47;;;;;;;17.42;3.58;;;;;;;11.44;49.66;100820.66;5019667;28;20468;-76
2021/03/21 10:49:45;;;;;;;16.05;4.25;;;;;;;11.60;49.26;100838.72;5018465;28;20052;-76
2021/03/21 10:52:28;;;;;;;17.70;4.15;;;;;;;11.51;48.66;100846.19;5016317;28;20062;-76
2021/03/21 10:55:31;;;;;;;16.77;4.65;;;;;;;11.48;49.32;100838.41;5006472;28;20066;-76
2021/03/21 10:58:22;;;;;;;18.08;4.53;;;;;;;11.61;48.65;100843.16;5008074;28;20061;-75
2021/03/21 11:01:39;;;;;;;17.65;3.97;;;;;;;11.64;47.78;100836.13;5028264;28;20065;-78
2021/03/21 11:04:26;;;;;;;14.88;4.13;;;;;;;11.56;48.77;100841.28;5014885;28;20071;-76
2021/03/21 11:06:57;;;;;;;15.25;3.40;;;;;;;11.43;49.58;100838.53;5019438;28;20058;-76
2021/03/21 11:09:31;;;;;;;18.33;3.97;;;;;;;11.30;49.09;100834.63;5007299;28;20050;-76
2021/03/21 11:11:59;;;;;;;14.30;4.07;;;;;;;11.15;47.86;100836.59;5004735;28;20076;-76
2021/03/21 11:14:32;;;;;;;19.25;4.43;;;;;;;10.96;47.89;100847.81;5003822;28;20054;-76
2021/03/21 11:17:02;;;;;;;14.63;3.78;;;;;;;11.06;47.56;100851.53;5017168;28;20054;-77
2021/03/21 11:19:29;;;;;;;;;;;;;;;11.26;47.39;100853.13;5013353;28;20076;-80
2021/03/21 11:21:57;;;;;;;16.13;3.80;;;;;;;11.56;46.82;100852.47;5009891;28;19928;-75
2021/03/21 11:24:33;;;;;;;16.52;3.78;;;;;;;11.63;45.32;100846.44;5008736;28;20054;-76
2021/03/21 11:27:01;;;;;;;18.08;4.20;;;;;;;11.70;44.83;100844.06;5014924;28;20057;-76
2021/03/21 11:29:35;;;;;;;20.90;4.20;;;;;;;12.02;43.49;100859.03;5015891;28;20054;-76
2021/03/21 11:32:16;;;;;;;22.40;4.90;;;;;;;12.17;42.80;100849.44;5015874;28;20058;-76
2021/03/21 11:34:44;;;;;;;15.18;4.13;;;;;;;13.03;41.19;100837.19;5003279;28;20062;-76
2021/03/21 11:37:14;;;;;;;20.13;4.97;;;;;;;14.31;38.68;100824.09;5014978;28;20057;-76
2021/03/21 11:39:42;;;;;;;;;;;;;;;16.12;35.10;100818.03;5001727;28;20054;-76
2021/03/21 11:42:29;;;;;;;12.88;3.70;;;;;;;15.58;35.05;100815.09;4996867;28;19922;-75
2021/03/21 11:45:23;;;;;;;20.92;5.35;;;;;;;14.84;35.96;100817.25;5013504;28;20057;-76
2021/03/21 11:47:53;;;;;;;18.60;3.88;;;;;;;14.12;38.34;100832.84;5015790;28;20058;-76
2021/03/21 11:50:21;;;;;;;;;;;;;;;13.87;38.48;100821.28;5006284;28;20081;-76
2021/03/21 11:52:49;;;;;;;19.75;4.63;;;;;;;14.32;38.61;100826.59;4996088;28;19921;-76
2021/03/21 11:55:17;;;;;;;15.27;4.25;;;;;;;15.58;34.58;100815.94;4996016;28;20103;-76
2021/03/21 11:58:06;;;;;;;14.07;4.47;;;;;;;16.79;33.13;100813.22;4996852;28;20050;-75
2021/03/21 12:00:36;;;;;;;18.13;5.00;;;;;;;17.04;31.42;100814.13;4996098;28;20070;-76
2021/03/21 12:03:14;;;;;;;14.93;3.92;;;;;;;16.36;32.29;100811.69;4998813;28;20050;-75
2021/03/21 12:05:45;;;;;;;16.75;4.38;;;;;;;15.83;33.85;100811.31;5002810;28;20062;-75
2021/03/21 12:08:25;;;;;;;15.60;4.35;;;;;;;15.21;35.13;100820.41;5010152;28;20072;-75